createdAt,value
2023-02-27T00:02:13.109Z,1.20
2023-02-27T00:04:39.808Z,0.90
2023-02-27T00:07:07.402Z,0.80
2023-02-27T00:09:34.095Z,0.77
2023-02-27T00:12:00.731Z,0.75
2023-02-27T00:14:27.490Z,0.80
2023-02-27T00:16:54.448Z,0.90
2023-02-27T00:19:21.998Z,0.90
2023-02-27T00:21:48.570Z,1.02
2023-02-27T00:24:15.264Z,1.05
2023-02-27T00:26:42.135Z,1.30
2023-02-27T00:29:08.755Z,1.10
2023-02-27T00:31:35.382Z,1.40
2023-02-27T00:34:02.203Z,1.20
2023-02-27T00:36:29.351Z,0.93
2023-02-27T00:38:56.073Z,0.73
2023-02-27T00:41:22.659Z,1.10
2023-02-27T00:43:49.297Z,0.80
2023-02-27T00:46:17.427Z,0.70
2023-02-27T00:48:44.129Z,0.70
2023-02-27T00:51:10.815Z,0.90
2023-02-27T00:53:37.416Z,0.77
2023-02-27T00:56:04.634Z,0.93
2023-02-27T00:58:31.366Z,0.80
2023-02-27T01:01:00.328Z,0.80
2023-02-27T01:03:26.936Z,0.80
2023-02-27T01:05:53.802Z,1.02
2023-02-27T01:08:20.892Z,0.73
2023-02-27T01:10:47.552Z,0.80
2023-02-27T01:13:14.228Z,0.80
2023-02-27T01:15:40.872Z,0.70
2023-02-27T01:18:07.596Z,0.60
2023-02-27T01:20:34.191Z,0.80
2023-02-27T01:23:01.148Z,0.80
2023-02-27T01:25:27.724Z,0.75
2023-02-27T01:27:54.496Z,1.00
2023-02-27T01:30:21.375Z,1.00
2023-02-27T01:32:48.080Z,0.88
2023-02-27T01:35:14.849Z,1.17
2023-02-27T01:37:41.801Z,1.00
2023-02-27T01:40:11.504Z,1.00
2023-02-27T01:42:38.173Z,0.80
2023-02-27T01:45:28.737Z,0.63
2023-02-27T01:48:39.802Z,0.90
2023-02-27T01:51:13.458Z,0.90
2023-02-27T01:53:41.970Z,0.80
2023-02-27T01:56:16.446Z,0.80
2023-02-27T01:58:43.475Z,0.80
2023-02-27T02:01:10.339Z,0.80
2023-02-27T02:03:48.945Z,0.90
2023-02-27T02:06:15.921Z,0.70
2023-02-27T02:08:45.618Z,0.80
2023-02-27T02:11:14.149Z,1.00
2023-02-27T02:13:41.640Z,0.75
2023-02-27T02:16:54.955Z,0.90
2023-02-27T02:20:06.430Z,0.80
2023-02-27T02:23:03.200Z,1.00
2023-02-27T02:26:11.826Z,0.90
2023-02-27T02:29:30.081Z,0.93
2023-02-27T02:32:15.080Z,0.75
2023-02-27T02:35:19.273Z,1.02
2023-02-27T02:38:04.603Z,0.90
2023-02-27T02:41:03.904Z,0.80
2023-02-27T02:43:49.033Z,0.70
2023-02-27T02:46:31.364Z,0.80
2023-02-27T02:49:11.897Z,0.90
2023-02-27T02:52:01.674Z,0.95
2023-02-27T02:54:48.616Z,0.98
2023-02-27T02:57:20.009Z,1.10
2023-02-27T03:00:10.971Z,0.77
2023-02-27T03:02:46.784Z,1.10
2023-02-27T03:05:33.092Z,0.95
2023-02-27T03:08:04.471Z,0.90
2023-02-27T03:10:50.118Z,0.88
2023-02-27T03:13:29.635Z,0.80
2023-02-27T03:16:21.859Z,0.80
2023-02-27T03:18:59.104Z,0.85
2023-02-27T03:21:47.066Z,0.80
2023-02-27T03:24:19.973Z,0.80
2023-02-27T03:26:48.249Z,0.88
2023-02-27T03:29:42.768Z,0.85
2023-02-27T03:32:21.578Z,0.90
2023-02-27T03:34:48.432Z,0.73
2023-02-27T03:38:02.826Z,0.80
2023-02-27T03:40:37.063Z,0.90
2023-02-27T03:43:41.929Z,0.90
2023-02-27T03:46:17.970Z,0.80
2023-02-27T03:48:45.997Z,0.80
2023-02-27T03:51:14.879Z,0.90
2023-02-27T03:53:51.105Z,0.88
2023-02-27T03:56:21.660Z,0.80
2023-02-27T03:58:48.289Z,0.80
2023-02-27T04:01:14.905Z,0.60
2023-02-27T04:03:45.970Z,0.70
2023-02-27T04:06:31.164Z,0.80
2023-02-27T04:09:09.108Z,0.80
2023-02-27T04:12:04.168Z,0.90
2023-02-27T04:15:17.064Z,0.90
2023-02-27T04:18:01.907Z,0.60
2023-02-27T04:20:39.508Z,0.60
2023-02-27T04:23:34.595Z,1.05
2023-02-27T04:26:37.034Z,1.00
2023-02-27T04:29:33.408Z,1.00
2023-02-27T04:32:03.703Z,0.90
2023-02-27T04:34:39.328Z,0.68
2023-02-27T04:37:16.071Z,0.60
2023-02-27T04:40:08.200Z,0.60
2023-02-27T04:42:38.749Z,0.90
2023-02-27T04:45:08.596Z,0.88
2023-02-27T04:47:40.828Z,1.10
2023-02-27T04:50:14.540Z,0.90
2023-02-27T04:52:45.274Z,0.77
2023-02-27T04:55:25.594Z,1.00
2023-02-27T04:57:57.883Z,0.90
2023-02-27T05:00:25.802Z,1.20
2023-02-27T05:02:56.878Z,0.82
2023-02-27T05:05:26.693Z,0.90
2023-02-27T05:08:21.690Z,0.90
2023-02-27T05:10:59.112Z,1.02
2023-02-27T05:13:32.647Z,1.02
2023-02-27T05:16:10.109Z,1.17
2023-02-27T05:18:37.290Z,0.98
2023-02-27T05:21:16.380Z,1.10
2023-02-27T05:23:56.495Z,1.23
2023-02-27T05:27:02.591Z,1.20
2023-02-27T05:29:36.821Z,1.30
2023-02-27T05:32:28.676Z,1.40
2023-02-27T05:35:20.567Z,1.15
2023-02-27T05:37:52.342Z,1.20
2023-02-27T05:40:23.647Z,1.25
2023-02-27T05:43:00.730Z,1.23
2023-02-27T05:45:30.049Z,1.70
2023-02-27T05:48:01.139Z,2.65
2023-02-27T05:50:31.007Z,3.22
2023-02-27T05:53:00.633Z,3.35
2023-02-27T05:55:32.945Z,3.42
2023-02-27T05:58:27.068Z,2.75
2023-02-27T06:01:05.693Z,3.03
2023-02-27T06:03:34.495Z,2.72
2023-02-27T06:06:03.834Z,2.20
2023-02-27T06:08:30.554Z,2.70
2023-02-27T06:10:57.310Z,2.00
2023-02-27T06:13:24.631Z,2.20
2023-02-27T06:15:51.169Z,2.40
2023-02-27T06:18:18.758Z,2.20
2023-02-27T06:20:46.702Z,3.85
2023-02-27T06:23:14.105Z,3.65
2023-02-27T06:25:42.403Z,3.97
2023-02-27T06:28:09.983Z,3.80
2023-02-27T06:30:37.051Z,4.05
2023-02-27T06:33:04.348Z,3.85
2023-02-27T06:35:31.309Z,4.25
2023-02-27T06:37:58.035Z,4.75
2023-02-27T06:40:25.080Z,3.92
2023-02-27T06:42:51.845Z,3.85
2023-02-27T06:45:18.886Z,3.22
2023-02-27T06:47:45.723Z,3.83
2023-02-27T06:50:13.520Z,4.03
2023-02-27T06:52:40.520Z,4.50
2023-02-27T06:55:08.927Z,3.63
2023-02-27T06:57:36.354Z,3.55
2023-02-27T07:00:04.785Z,3.90
2023-02-27T07:02:31.846Z,4.18
2023-02-27T07:04:58.530Z,3.63
2023-02-27T07:07:34.791Z,3.75
2023-02-27T07:10:05.578Z,3.75
2023-02-27T07:12:32.203Z,3.55
2023-02-27T07:14:59.251Z,4.38
2023-02-27T07:17:26.100Z,4.88
2023-02-27T07:19:52.894Z,4.80
2023-02-27T07:22:19.684Z,4.43
2023-02-27T07:24:46.385Z,3.40
2023-02-27T07:27:13.032Z,3.15
2023-02-27T07:29:39.666Z,3.90
2023-02-27T07:32:06.461Z,4.30
2023-02-27T07:34:33.243Z,3.33
2023-02-27T07:36:59.988Z,3.95
2023-02-27T07:39:26.878Z,3.22
2023-02-27T07:41:53.473Z,3.80
2023-02-27T07:44:20.078Z,2.95
2023-02-27T07:46:47.621Z,3.10
2023-02-27T07:49:14.569Z,4.28
2023-02-27T07:51:41.413Z,3.70
2023-02-27T07:54:08.348Z,3.53
2023-02-27T07:56:35.037Z,3.22
2023-02-27T07:59:01.759Z,2.72
2023-02-27T08:01:28.737Z,3.20
2023-02-27T08:03:56.629Z,2.92
2023-02-27T08:06:24.135Z,3.03
2023-02-27T08:08:51.905Z,3.15
2023-02-27T08:11:19.219Z,2.10
2023-02-27T08:14:02.936Z,2.72
2023-02-27T08:16:31.599Z,2.97
2023-02-27T08:18:59.262Z,2.05
2023-02-27T08:21:26.763Z,1.30
2023-02-27T08:23:54.705Z,1.30
2023-02-27T08:26:21.606Z,1.20
2023-02-27T08:28:48.478Z,1.50
2023-02-27T08:31:15.333Z,1.20
2023-02-27T08:33:42.128Z,2.33
2023-02-27T08:36:10.590Z,1.20
2023-02-27T08:38:39.442Z,1.17
2023-02-27T08:41:06.068Z,1.20
2023-02-27T08:43:33.075Z,1.13
2023-02-27T08:46:00.012Z,0.82
2023-02-27T08:48:26.722Z,1.10
2023-02-27T08:50:53.520Z,1.40
2023-02-27T08:53:20.205Z,1.40
2023-02-27T08:55:53.991Z,1.60
2023-02-27T08:58:20.892Z,0.90
2023-02-27T09:00:47.461Z,0.90
2023-02-27T09:03:14.150Z,1.15
2023-02-27T09:05:42.156Z,1.05
2023-02-27T09:08:08.861Z,1.10
2023-02-27T09:10:35.597Z,1.50
2023-02-27T09:13:02.464Z,1.15
2023-02-27T09:15:30.325Z,1.42
2023-02-27T09:18:02.599Z,1.10
2023-02-27T09:20:31.929Z,0.80
2023-02-27T09:22:59.857Z,0.90
2023-02-27T09:25:27.278Z,1.00
2023-02-27T09:27:54.122Z,0.80
2023-02-27T09:30:20.944Z,1.02
2023-02-27T09:32:47.790Z,0.82
2023-02-27T09:35:16.064Z,1.20
2023-02-27T09:37:44.067Z,0.95
2023-02-27T09:40:25.861Z,0.70
2023-02-27T09:42:54.703Z,1.20
2023-02-27T09:45:24.445Z,1.65
2023-02-27T09:47:54.063Z,1.20
2023-02-27T09:50:50.297Z,1.38
2023-02-27T09:53:37.574Z,1.10
2023-02-27T09:56:08.332Z,1.42
2023-02-27T09:59:09.445Z,0.70
2023-02-27T10:02:08.833Z,0.88
2023-02-27T10:04:54.439Z,1.10
2023-02-27T10:07:37.160Z,1.10
2023-02-27T10:10:09.929Z,0.77
2023-02-27T10:12:49.230Z,0.60
2023-02-27T10:15:26.688Z,0.80
2023-02-27T10:17:57.022Z,0.70
2023-02-27T10:20:29.702Z,0.70
2023-02-27T10:22:59.929Z,0.80
2023-02-27T10:25:31.555Z,0.90
2023-02-27T10:28:18.241Z,0.50
2023-02-27T10:30:52.814Z,0.85
2023-02-27T10:33:28.593Z,1.30
2023-02-27T10:35:58.403Z,1.10
2023-02-27T10:38:34.467Z,0.90
2023-02-27T10:41:02.485Z,1.02
2023-02-27T10:43:29.650Z,1.33
2023-02-27T10:45:56.817Z,1.50
2023-02-27T10:48:23.921Z,0.90
2023-02-27T10:50:53.887Z,2.35
2023-02-27T10:53:25.702Z,2.08
2023-02-27T10:56:04.222Z,3.67
2023-02-27T10:58:34.637Z,1.80
2023-02-27T11:01:04.417Z,1.75
2023-02-27T11:03:39.316Z,1.90
2023-02-27T11:06:34.062Z,1.63
2023-02-27T11:09:24.159Z,1.45
2023-02-27T11:11:51.954Z,1.50
2023-02-27T11:14:29.494Z,1.55
2023-02-27T11:17:05.042Z,2.40
2023-02-27T11:19:37.100Z,1.50
2023-02-27T11:22:07.224Z,0.90
2023-02-27T11:24:34.366Z,1.00
2023-02-27T11:27:18.001Z,1.38
2023-02-27T11:30:27.775Z,1.20
2023-02-27T11:32:57.348Z,2.25
2023-02-27T11:35:38.844Z,1.00
2023-02-27T11:38:19.012Z,1.50
2023-02-27T11:40:54.622Z,0.90
2023-02-27T11:43:24.421Z,0.98
2023-02-27T11:46:05.178Z,1.40
2023-02-27T11:48:51.111Z,0.85
2023-02-27T11:51:29.724Z,0.90
2023-02-27T11:54:06.553Z,1.35
2023-02-27T11:56:40.342Z,2.00
2023-02-27T11:59:18.228Z,1.00
2023-02-27T12:02:25.802Z,0.98
2023-02-27T12:04:57.075Z,1.00
2023-02-27T12:07:34.027Z,0.77
2023-02-27T12:10:27.482Z,0.63
2023-02-27T12:13:04.533Z,0.80
2023-02-27T12:15:56.233Z,0.88
2023-02-27T12:18:38.074Z,1.27
2023-02-27T12:21:07.891Z,1.15
2023-02-27T12:23:40.818Z,0.93
2023-02-27T12:26:11.830Z,0.98
2023-02-27T12:29:34.067Z,0.95
2023-02-27T12:32:03.657Z,1.00
2023-02-27T12:34:39.384Z,0.80
2023-02-27T12:37:11.332Z,1.00
2023-02-27T12:39:38.874Z,1.30
2023-02-27T12:42:27.496Z,0.98
2023-02-27T12:45:43.095Z,1.10
2023-02-27T12:48:42.805Z,1.20
2023-02-27T12:51:21.474Z,1.33
2023-02-27T12:54:20.145Z,1.10
2023-02-27T12:57:25.616Z,1.05
2023-02-27T13:00:00.321Z,1.25
2023-02-27T13:02:47.564Z,1.02
2023-02-27T13:05:39.421Z,1.17
2023-02-27T13:08:39.556Z,1.70
2023-02-27T13:11:32.873Z,1.50
2023-02-27T13:14:15.595Z,1.02
2023-02-27T13:16:46.941Z,1.30
2023-02-27T13:19:24.683Z,2.80
2023-02-27T13:21:55.125Z,1.52
2023-02-27T13:24:27.231Z,1.40
2023-02-27T13:27:01.225Z,3.22
2023-02-27T13:29:37.697Z,2.85
2023-02-27T13:32:21.612Z,2.17
2023-02-27T13:34:57.789Z,1.30
2023-02-27T13:37:24.754Z,1.45
2023-02-27T13:39:53.614Z,1.75
2023-02-27T13:42:46.628Z,1.38
2023-02-27T13:46:07.476Z,1.40
2023-02-27T13:48:40.336Z,1.40
2023-02-27T13:51:10.953Z,1.10
2023-02-27T13:53:38.113Z,1.80
2023-02-27T13:56:24.024Z,1.50
2023-02-27T13:58:51.279Z,1.88
2023-02-27T14:01:24.136Z,1.88
2023-02-27T14:03:56.798Z,1.77
2023-02-27T14:06:27.531Z,3.70
2023-02-27T14:09:08.802Z,3.50
2023-02-27T14:11:41.031Z,1.95
2023-02-27T14:14:10.006Z,2.95
2023-02-27T14:16:55.039Z,1.50
2023-02-27T14:19:48.318Z,2.10
2023-02-27T14:22:35.273Z,1.85
2023-02-27T14:25:08.803Z,17.42
2023-02-27T14:27:50.321Z,3.05
2023-02-27T14:30:51.439Z,1.98
2023-02-27T14:33:39.549Z,1.90
2023-02-27T14:36:29.703Z,3.80
2023-02-27T14:39:00.271Z,1.75
2023-02-27T14:41:52.734Z,1.45
2023-02-27T14:44:21.951Z,7.22
2023-02-27T14:46:49.697Z,3.45
2023-02-27T14:49:18.280Z,5.63
2023-02-27T14:51:45.479Z,7.03
2023-02-27T14:54:21.022Z,3.88
2023-02-27T14:56:58.367Z,1.90
2023-02-27T14:59:36.993Z,1.80
2023-02-27T15:02:04.655Z,3.55
2023-02-27T15:04:33.063Z,2.90
2023-02-27T15:07:00.856Z,2.90
2023-02-27T15:09:49.370Z,2.75
2023-02-27T15:12:21.054Z,2.58
2023-02-27T15:14:51.040Z,2.47
2023-02-27T15:17:26.135Z,6.82
2023-02-27T15:19:56.019Z,3.90
2023-02-27T15:22:38.427Z,20.33
2023-02-27T15:25:08.188Z,3.20
2023-02-27T15:27:37.270Z,2.20
2023-02-27T15:30:05.261Z,1.55
2023-02-27T15:32:42.168Z,3.30
2023-02-27T15:35:15.943Z,6.43
2023-02-27T15:37:48.256Z,4.18
2023-02-27T15:40:20.650Z,6.03
2023-02-27T15:42:47.924Z,8.35
2023-02-27T15:45:22.445Z,6.63
2023-02-27T15:47:49.384Z,3.38
2023-02-27T15:50:27.525Z,3.63
2023-02-27T15:53:09.917Z,3.47
2023-02-27T15:55:54.407Z,2.88
2023-02-27T16:00:53.263Z,2.08
2023-02-27T16:03:24.000Z,1.60
2023-02-27T16:05:52.234Z,2.30
2023-02-27T16:08:20.392Z,2.53
2023-02-27T16:10:47.807Z,1.77
2023-02-27T16:13:32.061Z,1.90
2023-02-27T16:16:00.571Z,1.88
2023-02-27T16:18:32.033Z,2.03
2023-02-27T16:21:09.597Z,14.20
2023-02-27T16:23:36.289Z,2.05
2023-02-27T16:26:40.638Z,2.38
2023-02-27T16:29:19.349Z,2.20
2023-02-27T16:31:49.414Z,1.83
2023-02-27T16:34:44.705Z,2.42
2023-02-27T16:37:32.264Z,2.92
2023-02-27T16:39:58.997Z,4.20
2023-02-27T16:42:26.122Z,4.45
2023-02-27T16:44:53.327Z,4.68
2023-02-27T16:47:20.461Z,4.72
2023-02-27T16:49:50.893Z,3.15
2023-02-27T16:52:17.487Z,4.63
2023-02-27T16:54:44.067Z,10.52
2023-02-27T16:57:11.586Z,13.90
2023-02-27T16:59:40.458Z,9.70
2023-02-27T17:02:15.244Z,12.00
2023-02-27T17:04:44.564Z,11.02
2023-02-27T17:07:15.978Z,8.50
2023-02-27T17:09:44.412Z,6.10
2023-02-27T17:12:11.079Z,7.75
2023-02-27T17:14:38.105Z,3.95
2023-02-27T17:17:05.805Z,4.30
2023-02-27T17:19:33.463Z,4.47
2023-02-27T17:22:00.162Z,2.83
2023-02-27T17:24:27.072Z,2.00
2023-02-27T17:26:53.707Z,6.18
2023-02-27T17:29:20.720Z,1.85
2023-02-27T17:31:47.418Z,2.28
2023-02-27T17:34:16.945Z,2.38
2023-02-27T17:36:43.971Z,4.60
2023-02-27T17:39:14.993Z,4.35
2023-02-27T17:41:42.706Z,6.80
2023-02-27T17:44:12.845Z,6.47
2023-02-27T17:46:39.859Z,4.32
2023-02-27T17:49:07.076Z,4.30
2023-02-27T17:51:34.414Z,4.38
2023-02-27T17:54:03.186Z,5.13
2023-02-27T17:56:34.589Z,2.83
2023-02-27T17:59:03.418Z,1.93
2023-02-27T18:01:30.264Z,2.20
2023-02-27T18:03:57.196Z,2.13
2023-02-27T18:06:24.879Z,2.70
2023-02-27T18:08:51.596Z,3.47
2023-02-27T18:11:23.314Z,4.57
2023-02-27T18:13:50.714Z,3.45
2023-02-27T18:16:18.322Z,2.78
2023-02-27T18:18:45.281Z,3.58
2023-02-27T18:21:20.914Z,3.15
2023-02-27T18:23:47.993Z,3.30
2023-02-27T18:26:28.935Z,6.35
2023-02-27T18:29:02.303Z,4.25
2023-02-27T18:31:38.039Z,3.97
2023-02-27T18:34:05.442Z,5.13
2023-02-27T18:36:36.852Z,4.65
2023-02-27T18:39:05.192Z,5.82
2023-02-27T18:41:32.360Z,5.25
2023-02-27T18:43:59.087Z,4.47
2023-02-27T18:46:25.871Z,2.67
2023-02-27T18:48:52.683Z,5.10
2023-02-27T18:51:20.035Z,2.83
2023-02-27T18:53:49.019Z,3.40
2023-02-27T18:56:18.512Z,4.70
2023-02-27T18:58:45.117Z,7.53
2023-02-27T19:01:23.639Z,2.55
2023-02-27T19:03:55.183Z,2.60
2023-02-27T19:06:21.876Z,2.70
2023-02-27T19:08:48.518Z,3.53
2023-02-27T19:11:29.770Z,3.15
2023-02-27T19:13:57.844Z,2.85
2023-02-27T19:16:24.459Z,2.45
2023-02-27T19:18:51.100Z,2.60
2023-02-27T19:21:17.942Z,3.88
2023-02-27T19:23:44.535Z,3.45
2023-02-27T19:26:11.424Z,3.60
2023-02-27T19:28:38.044Z,4.28
2023-02-27T19:31:09.432Z,3.13
2023-02-27T19:33:36.877Z,3.85
2023-02-27T19:36:10.724Z,4.55
2023-02-27T19:38:37.545Z,3.80
2023-02-27T19:41:05.426Z,2.90
2023-02-27T19:43:32.489Z,3.63
2023-02-27T19:45:59.189Z,4.10
2023-02-27T19:48:25.929Z,4.45
2023-02-27T19:50:52.664Z,3.45
2023-02-27T19:53:19.307Z,3.67
2023-02-27T19:55:45.912Z,4.40
2023-02-27T19:58:12.761Z,4.60
2023-02-27T20:00:40.186Z,6.10
2023-02-27T20:03:06.932Z,4.30
2023-02-27T20:05:37.908Z,5.00
2023-02-27T20:08:05.052Z,6.90
2023-02-27T20:10:34.659Z,6.10
2023-02-27T20:13:01.215Z,5.72
2023-02-27T20:15:27.885Z,5.85
2023-02-27T20:17:55.103Z,5.50
2023-02-27T20:20:21.755Z,6.05
2023-02-27T20:22:49.347Z,4.60
2023-02-27T20:25:16.282Z,4.97
2023-02-27T20:27:43.214Z,5.18
2023-02-27T20:30:11.269Z,4.28
2023-02-27T20:32:38.067Z,6.10
2023-02-27T20:35:06.946Z,7.10
2023-02-27T20:37:35.690Z,5.50
2023-02-27T20:40:04.296Z,5.18
2023-02-27T20:42:31.074Z,4.95
2023-02-27T20:44:57.648Z,6.82
2023-02-27T20:47:24.278Z,5.10
2023-02-27T20:49:50.945Z,5.03
2023-02-27T20:52:17.768Z,5.05
2023-02-27T20:54:44.426Z,5.72
2023-02-27T20:57:11.014Z,6.88
2023-02-27T20:59:37.717Z,9.85
2023-02-27T21:02:06.916Z,6.53
2023-02-27T21:04:43.148Z,8.40
2023-02-27T21:07:14.415Z,7.00
2023-02-27T21:09:41.295Z,4.40
2023-02-27T21:12:12.147Z,5.85
2023-02-27T21:14:39.054Z,5.60
2023-02-27T21:17:08.754Z,8.40
2023-02-27T21:19:35.471Z,4.80
2023-02-27T21:22:02.064Z,4.03
2023-02-27T21:24:32.250Z,3.13
2023-02-27T21:26:59.537Z,6.28
2023-02-27T21:29:26.384Z,4.13
2023-02-27T21:31:53.140Z,4.00
2023-02-27T21:34:25.891Z,4.75
2023-02-27T21:36:53.676Z,5.20
2023-02-27T21:39:26.099Z,7.22
2023-02-27T21:41:53.160Z,4.40
2023-02-27T21:44:21.559Z,3.63
2023-02-27T21:46:48.667Z,3.13
2023-02-27T21:49:17.414Z,2.53
2023-02-27T21:51:44.477Z,2.40
2023-02-27T21:54:13.410Z,3.72
2023-02-27T21:56:40.750Z,3.25
2023-02-27T21:59:07.757Z,4.20
2023-02-27T22:01:35.133Z,4.30
2023-02-27T22:04:02.198Z,3.40
2023-02-27T22:06:34.256Z,3.80
2023-02-27T22:09:04.613Z,4.20
2023-02-27T22:11:32.410Z,4.78
2023-02-27T22:13:58.976Z,4.88
2023-02-27T22:16:25.736Z,4.93
2023-02-27T22:18:52.409Z,4.75
2023-02-27T22:21:22.232Z,5.40
2023-02-27T22:23:49.093Z,4.80
2023-02-27T22:26:18.310Z,4.45
2023-02-27T22:28:45.124Z,4.45
2023-02-27T22:31:14.328Z,4.88
2023-02-27T22:33:42.656Z,4.38
2023-02-27T22:36:11.785Z,4.45
2023-02-27T22:38:38.583Z,4.63
2023-02-27T22:41:08.046Z,4.55
2023-02-27T22:43:35.057Z,4.57
2023-02-27T22:46:02.542Z,4.38
2023-02-27T22:48:29.186Z,4.65
2023-02-27T22:51:07.532Z,4.15
2023-02-27T22:53:38.623Z,4.47
2023-02-27T22:56:10.943Z,4.05
2023-02-27T22:58:39.164Z,4.47
2023-02-27T23:01:20.784Z,4.47
2023-02-27T23:03:49.871Z,4.50
2023-02-27T23:06:20.745Z,4.53
2023-02-27T23:08:47.876Z,4.30
2023-02-27T23:11:15.340Z,4.50
2023-02-27T23:13:42.392Z,4.97
2023-02-27T23:16:13.646Z,4.90
2023-02-27T23:18:41.848Z,5.00
2023-02-27T23:21:09.695Z,5.68
2023-02-27T23:23:36.808Z,5.20
2023-02-27T23:26:04.830Z,5.20
2023-02-27T23:28:31.911Z,5.80
2023-02-27T23:30:59.758Z,5.88
2023-02-27T23:33:27.495Z,5.03
2023-02-27T23:35:54.250Z,5.13
2023-02-27T23:38:21.363Z,5.05
2023-02-27T23:40:48.231Z,5.18
2023-02-27T23:43:15.098Z,4.68
2023-02-27T23:45:41.928Z,5.47
2023-02-27T23:48:08.894Z,4.20
2023-02-27T23:50:37.938Z,4.60
2023-02-27T23:53:05.429Z,4.03
2023-02-27T23:55:34.211Z,4.30
2023-02-27T23:58:02.155Z,4.50
